Time;durP1;ratioP1;P1;durP2;ratioP2;P2;SDS_P1;SDS_P2;PMS_P1;PMS_P2;Temp;Humidity;BMP_temperature;BMP_pressure;BME280_temperature;BME280_humidity;BME280_pressure;Samples;Min_cycle;Max_cycle;Signal;HPM_P1;HPM_P2
2021/12/12 00:01:14;;;;;;;12.10;11.37;;;;;;;7.01;100.00;91381.00;5072748;28;20228;-82
2021/12/12 00:03:47;;;;;;;13.23;12.30;;;;;;;7.24;100.00;91392.25;5071571;28;20275;-82
2021/12/12 00:06:18;;;;;;;17.17;15.47;;;;;;;7.36;100.00;91406.31;5071062;28;20251;-82
2021/12/12 00:08:47;;;;;;;17.37;15.67;;;;;;;7.44;100.00;91408.25;5072094;28;20772;-82
2021/12/12 00:11:17;;;;;;;18.67;15.80;;;;;;;7.40;100.00;91438.44;5086980;28;20228;-81
2021/12/12 00:13:47;;;;;;;16.37;15.03;;;;;;;7.49;100.00;91454.09;5091276;28;20228;-82
2021/12/12 00:16:14;;;;;;;15.83;14.43;;;;;;;7.26;100.00;91398.72;5075779;28;20239;-81
2021/12/12 00:18:39;;;;;;;14.93;13.47;;;;;;;7.42;100.00;91418.16;5072455;28;20237;-81
2021/12/12 00:21:07;;;;;;;15.87;14.63;;;;;;;7.51;100.00;91439.03;5071714;28;20224;-81
2021/12/12 00:23:33;;;;;;;16.47;15.00;;;;;;;7.47;100.00;91428.44;5070739;28;20178;-81
2021/12/12 00:26:00;;;;;;;17.70;16.00;;;;;;;7.07;100.00;91426.56;5068893;28;20236;-81
2021/12/12 00:28:27;;;;;;;18.33;16.80;;;;;;;7.34;100.00;91473.34;5072007;28;20245;-81
2021/12/12 00:30:58;;;;;;;17.10;15.57;;;;;;;7.44;100.00;91441.25;5071654;28;20225;-82
2021/12/12 00:33:24;;;;;;;18.33;16.93;;;;;;;7.54;100.00;91467.78;5071312;28;20233;-81
2021/12/12 00:35:51;;;;;;;17.13;15.57;;;;;;;7.49;100.00;91456.69;5083910;28;20243;-81
2021/12/12 00:38:25;;;;;;;17.70;16.30;;;;;;;7.69;100.00;91457.09;5089747;28;20207;-82
2021/12/12 00:40:53;;;;;;;17.63;16.23;;;;;;;7.25;100.00;91399.78;5090785;28;20303;-82
2021/12/12 00:43:33;;;;;;;20.33;18.63;;;;;;;7.50;100.00;91471.25;5090866;28;20184;-82
2021/12/12 00:46:02;;;;;;;18.60;16.93;;;;;;;7.43;100.00;91484.59;5089498;28;20220;-77
2021/12/12 00:48:29;;;;;;;22.83;19.13;;;;;;;7.03;100.00;91438.56;5087348;28;20204;-89
2021/12/12 00:50:57;;;;;;;18.97;17.47;;;;;;;7.40;100.00;91495.56;5076530;28;20248;-76
2021/12/12 00:53:22;;;;;;;24.03;20.93;;;;;;;7.47;100.00;91495.94;5069686;28;20220;-76
2021/12/12 00:55:50;;;;;;;23.83;21.60;;;;;;;7.49;100.00;91506.03;5066750;28;20230;-76
2021/12/12 00:58:17;;;;;;;22.20;20.27;;;;;;;7.38;100.00;91515.84;5066927;28;20210;-77
2021/12/12 01:00:49;;;;;;;23.40;21.07;;;;;;;7.35;100.00;91513.81;5080024;28;20216;-77
2021/12/12 01:03:18;;;;;;;23.03;20.93;;;;;;;7.44;100.00;91516.53;5088714;28;20191;-74
2021/12/12 01:05:46;;;;;;;22.83;20.97;;;;;;;7.46;100.00;91525.56;5074923;28;20237;-74
2021/12/12 01:08:14;;;;;;;22.77;20.70;;;;;;;7.38;100.00;91517.66;5069192;28;20190;-75
2021/12/12 01:10:47;;;;;;;22.47;20.37;;;;;;;7.32;100.00;91524.75;5065676;28;20241;-75
2021/12/12 01:13:14;;;;;;;22.37;20.17;;;;;;;7.28;100.00;91523.03;5068406;28;20241;-76
2021/12/12 01:15:48;;;;;;;23.50;21.13;;;;;;;7.30;100.00;91516.47;5068022;28;20233;-76
2021/12/12 01:18:18;;;;;;;24.97;22.57;;;;;;;7.23;100.00;91503.13;5069361;28;20188;-76
2021/12/12 01:20:56;;;;;;;26.03;23.53;;;;;;;7.17;100.00;91493.88;5069209;28;20231;-79
2021/12/12 01:23:28;;;;;;;41.30;33.20;;;;;;;7.30;100.00;91519.06;5068655;28;20189;-77
2021/12/12 01:25:56;;;;;;;36.23;31.97;;;;;;;7.09;100.00;91520.47;5069033;28;20226;-79
2021/12/12 01:28:25;;;;;;;23.60;21.17;;;;;;;7.37;100.00;91514.31;5070303;28;20255;-79
2021/12/12 01:30:53;;;;;;;26.33;23.73;;;;;;;7.30;99.86;91500.91;5067924;28;20222;-75
2021/12/12 01:33:32;;;;;;;27.07;24.23;;;;;;;6.99;100.00;91496.50;5069757;28;20311;-76
2021/12/12 01:35:59;;;;;;;31.80;28.17;;;;;;;6.78;100.00;91508.22;5067895;28;20280;-76
2021/12/12 01:41:09;;;;;;;32.87;28.77;;;;;;;6.88;100.00;91503.66;5068568;28;20236;-76
2021/12/12 01:43:42;;;;;;;26.20;23.53;;;;;;;6.93;100.00;91503.59;5070299;28;20194;-76
2021/12/12 01:46:31;;;;;;;25.70;23.07;;;;;;;6.87;100.00;91512.50;5069324;28;20217;-75
2021/12/12 01:49:27;;;;;;;26.13;23.47;;;;;;;6.96;100.00;91539.34;5070557;28;20181;-76
2021/12/12 01:51:53;;;;;;;24.90;22.43;;;;;;;6.93;100.00;91537.31;5068861;28;20232;-75
2021/12/12 01:54:26;;;;;;;23.83;21.47;;;;;;;7.18;99.79;91513.56;5067989;28;20244;-76
2021/12/12 01:56:58;;;;;;;30.00;25.10;;;;;;;6.88;100.00;91524.41;5069692;28;20197;-76
2021/12/12 01:59:31;;;;;;;24.90;22.30;;;;;;;6.04;100.00;91516.72;5066873;28;20197;-76
2021/12/12 02:02:07;;;;;;;25.93;23.07;;;;;;;6.43;100.00;91556.16;5069856;28;20194;-75
2021/12/12 02:04:39;;;;;;;24.07;21.67;;;;;;;6.72;100.00;91561.22;5069118;28;20220;-75
2021/12/12 02:07:08;;;;;;;21.87;19.67;;;;;;;6.97;100.00;91566.84;5067689;28;21045;-76
2021/12/12 02:09:35;;;;;;;23.13;21.00;;;;;;;6.82;100.00;91567.03;5069323;28;20189;-76
2021/12/12 02:12:01;;;;;;;23.07;21.00;;;;;;;6.86;100.00;91544.69;5069483;28;20278;-75
2021/12/12 02:14:32;;;;;;;24.33;21.93;;;;;;;6.69;100.00;91528.84;5069097;28;20240;-75
2021/12/12 02:17:14;;;;;;;22.93;20.63;;;;;;;6.49;100.00;91536.88;5070031;28;20213;-75
2021/12/12 02:20:00;;;;;;;25.40;22.80;;;;;;;6.67;100.00;91546.50;5066837;28;20237;-76
2021/12/12 02:36:03;;;;;;;24.33;21.80;;;;;;;6.67;100.00;91580.22;5068875;28;20231;-76
2021/12/12 02:38:31;;;;;;;27.50;24.70;;;;;;;6.19;100.00;91574.34;5067266;28;20185;-76
2021/12/12 02:41:00;;;;;;;27.00;24.17;;;;;;;6.39;100.00;91584.47;5067791;28;20232;-75
2021/12/12 02:43:29;;;;;;;23.10;20.70;;;;;;;6.50;100.00;91593.66;5068509;28;20834;-76
2021/12/12 02:45:57;;;;;;;15.23;14.03;;;;;;;6.50;100.00;91592.88;5065784;28;20228;-76
2021/12/12 02:48:32;;;;;;;20.30;18.50;;;;;;;6.65;100.00;91603.06;5066749;28;20276;-76
2021/12/12 02:51:02;;;;;;;16.40;15.10;;;;;;;6.60;100.00;91602.38;5065475;28;20230;-75
2021/12/12 02:53:38;;;;;;;17.20;15.60;;;;;;;6.63;100.00;91607.00;5067271;28;20190;-75
2021/12/12 02:56:11;;;;;;;14.90;13.80;;;;;;;6.62;100.00;91598.44;5068259;28;20216;-76
2021/12/12 02:58:38;;;;;;;16.07;14.87;;;;;;;6.61;100.00;91594.31;5067801;28;20189;-76
2021/12/12 03:01:20;;;;;;;16.83;15.40;;;;;;;6.67;100.00;91605.38;5084132;28;20212;-75
2021/12/12 03:03:48;;;;;;;16.47;15.07;;;;;;;6.65;98.46;91599.69;5089210;28;20184;-75
2021/12/12 03:06:21;;;;;;;16.27;15.07;;;;;;;6.57;99.30;91611.44;5087838;28;20224;-75
2021/12/12 03:08:49;;;;;;;15.67;14.47;;;;;;;6.60;100.00;91617.91;5089195;28;20193;-76
2021/12/12 03:11:15;;;;;;;15.83;14.53;;;;;;;6.55;99.89;91613.56;5088191;28;20232;-75
2021/12/12 03:13:42;;;;;;;17.17;15.63;;;;;;;6.53;100.00;91608.66;5088499;28;20298;-75
2021/12/12 03:16:08;;;;;;;17.90;16.40;;;;;;;6.58;100.00;91611.19;5088142;28;20239;-75
2021/12/12 03:18:39;;;;;;;15.30;14.13;;;;;;;6.58;99.74;91628.56;5088663;28;20643;-76
2021/12/12 03:21:14;;;;;;;14.93;13.93;;;;;;;6.51;98.57;91615.16;5089250;28;20221;-75
2021/12/12 03:23:44;;;;;;;12.93;12.10;;;;;;;6.68;98.50;91618.06;5089131;28;20192;-75
2021/12/12 03:26:15;;;;;;;12.87;11.93;;;;;;;6.63;99.04;91644.03;5088004;28;20217;-76
2021/12/12 03:28:44;;;;;;;14.43;13.23;;;;;;;6.18;99.48;91650.53;5088112;28;20277;-75
2021/12/12 03:31:15;;;;;;;12.87;11.97;;;;;;;6.38;99.80;91634.75;5090612;28;20216;-75
2021/12/12 03:33:40;;;;;;;12.93;12.23;;;;;;;6.39;99.41;91646.69;5092583;28;20188;-75
2021/12/12 03:36:10;;;;;;;14.27;13.23;;;;;;;6.46;99.72;91651.50;5092378;28;20433;-75
2021/12/12 03:38:39;;;;;;;18.87;17.47;;;;;;;6.59;96.54;91669.00;5092030;28;20204;-75
2021/12/12 03:41:09;;;;;;;16.53;15.23;;;;;;;6.42;95.52;91658.31;5092303;28;20223;-75
2021/12/12 03:43:36;;;;;;;17.27;16.07;;;;;;;6.36;95.25;91674.97;5091275;28;20198;-75
2021/12/12 03:46:06;;;;;;;15.57;14.57;;;;;;;6.11;96.27;91672.63;5076796;28;20237;-75
2021/12/12 03:48:33;;;;;;;16.70;15.50;;;;;;;5.96;98.44;91689.06;5072169;28;20236;-75
2021/12/12 03:51:04;;;;;;;17.23;15.60;;;;;;;5.94;98.26;91683.41;5071639;28;20222;-76
2021/12/12 03:53:32;;;;;;;17.50;16.07;;;;;;;5.85;97.90;91679.84;5070292;28;20254;-74
2021/12/12 03:55:58;;;;;;;18.27;16.97;;;;;;;5.86;96.79;91678.03;5071925;28;20217;-75
2021/12/12 03:58:24;;;;;;;17.83;16.47;;;;;;;5.90;96.78;91694.59;5073308;28;20216;-75
2021/12/12 04:00:53;;;;;;;17.67;16.30;;;;;;;5.85;96.66;91707.56;5084871;28;20232;-75
2021/12/12 04:03:20;;;;;;;17.10;15.87;;;;;;;5.67;97.98;91695.25;5092314;28;20196;-75
2021/12/12 04:05:50;;;;;;;16.60;15.40;;;;;;;5.73;97.92;91717.47;5092366;28;20224;-75
2021/12/12 04:08:15;;;;;;;16.43;15.23;;;;;;;5.96;95.63;91722.00;5091360;28;20185;-75
2021/12/12 04:10:41;;;;;;;17.17;15.97;;;;;;;5.69;95.59;91716.47;5091395;28;20220;-75
2021/12/12 04:13:07;;;;;;;14.40;13.43;;;;;;;5.74;96.53;91721.59;5092671;28;21159;-76
2021/12/12 04:15:33;;;;;;;15.77;14.60;;;;;;;5.69;96.80;91732.00;5080335;28;20282;-73
2021/12/12 04:17:59;;;;;;;15.77;14.67;;;;;;;5.35;97.57;91703.50;5072171;28;20241;-76
2021/12/12 04:20:29;;;;;;;15.47;14.37;;;;;;;5.58;95.72;91730.53;5071456;28;20220;-73
2021/12/12 04:22:55;;;;;;;16.97;15.50;;;;;;;5.64;97.04;91742.38;5069650;28;20189;-76
2021/12/12 04:25:22;;;;;;;15.50;14.33;;;;;;;5.42;97.01;91745.38;5071665;28;20229;-75
2021/12/12 04:27:48;;;;;;;15.97;14.77;;;;;;;5.46;98.08;91751.56;5072459;28;20173;-75
2021/12/12 04:30:16;;;;;;;16.53;15.27;;;;;;;5.24;98.19;91703.81;5079507;28;20323;-75
2021/12/12 04:32:44;;;;;;;14.83;13.83;;;;;;;5.70;93.81;91752.44;5092005;28;20181;-76
2021/12/12 04:35:17;;;;;;;14.17;13.00;;;;;;;5.50;94.95;91767.31;5090614;28;20224;-75
2021/12/12 04:37:44;;;;;;;15.77;14.73;;;;;;;5.27;96.92;91775.72;5092004;28;20220;-75
2021/12/12 04:40:15;;;;;;;14.00;13.10;;;;;;;5.13;97.28;91774.75;5090595;28;20240;-75
2021/12/12 04:42:43;;;;;;;14.27;13.47;;;;;;;5.23;97.22;91777.31;5090214;28;20208;-76
2021/12/12 04:45:36;;;;;;;13.00;12.30;;;;;;;4.86;96.80;91801.75;5084213;28;20229;-76
2021/12/12 04:51:23;;;;;;;11.33;10.73;;;;;;;4.83;96.47;91773.84;5085080;28;20250;-75
2021/12/12 04:53:52;;;;;;;11.50;11.00;;;;;;;4.24;96.36;91749.72;5091077;28;20229;-75
2021/12/12 04:56:25;;;;;;;11.63;11.03;;;;;;;4.44;98.90;91791.00;5089414;28;20280;-75
2021/12/12 04:59:27;;;;;;;11.70;11.03;;;;;;;4.25;99.07;91815.06;5090690;28;21135;-75
2021/12/12 05:02:09;;;;;;;12.37;11.53;;;;;;;4.58;98.95;91817.06;5091689;28;20208;-75
2021/12/12 05:04:47;;;;;;;12.23;11.63;;;;;;;4.77;96.93;91823.25;5090611;28;20213;-77
2021/12/12 05:07:15;;;;;;;11.17;10.63;;;;;;;4.75;95.67;91833.84;5091036;28;20198;-78
2021/12/12 05:09:50;;;;;;;13.93;13.13;;;;;;;4.85;96.77;91851.94;5091132;28;20224;-78
2021/12/12 05:12:39;;;;;;;12.13;11.53;;;;;;;4.80;95.80;91833.84;5090706;28;20191;-79
2021/12/12 05:15:11;;;;;;;12.20;11.50;;;;;;;4.94;92.46;91844.41;5090506;28;20229;-79
2021/12/12 05:17:44;;;;;;;13.27;12.57;;;;;;;4.52;94.12;91833.63;5090844;28;20193;-78
2021/12/12 05:20:16;;;;;;;11.87;11.23;;;;;;;4.65;94.04;91859.69;5090137;28;20236;-78
2021/12/12 05:22:49;;;;;;;11.67;10.97;;;;;;;4.41;92.07;91807.03;5090338;28;20258;-79
2021/12/12 05:25:25;;;;;;;11.77;11.13;;;;;;;4.24;94.47;91832.38;5087353;28;20239;-79
2021/12/12 05:27:54;;;;;;;10.27;9.70;;;;;;;4.27;95.18;91867.22;5090440;28;20191;-79
2021/12/12 05:30:24;;;;;;;11.07;10.57;;;;;;;4.32;94.54;91874.97;5090464;28;20287;-79
2021/12/12 05:32:51;;;;;;;11.73;11.13;;;;;;;4.14;93.68;91873.69;5089535;28;20248;-79
2021/12/12 05:35:20;;;;;;;10.80;10.20;;;;;;;4.40;93.55;91877.84;5090250;28;20221;-79
2021/12/12 05:37:48;;;;;;;12.27;11.57;;;;;;;4.15;94.47;91866.72;5090733;28;20193;-79
2021/12/12 05:40:14;;;;;;;11.27;10.67;;;;;;;4.19;93.74;91896.16;5089546;28;20235;-79
2021/12/12 05:42:40;;;;;;;11.40;10.90;;;;;;;3.94;93.95;91878.06;5089991;28;20198;-78
2021/12/12 05:45:09;;;;;;;9.83;9.43;;;;;;;3.83;92.73;91897.91;5082648;28;20594;-78
2021/12/12 05:47:35;;;;;;;10.73;10.23;;;;;;;3.55;92.50;91882.84;5070064;28;20189;-78
2021/12/12 05:50:04;;;;;;;10.47;9.97;;;;;;;3.54;93.32;91898.59;5069303;28;20262;-78
2021/12/12 05:52:30;;;;;;;10.60;10.20;;;;;;;3.21;93.87;91894.59;5068422;28;20197;-79
2021/12/12 05:54:56;;;;;;;10.13;9.73;;;;;;;3.28;95.51;91933.84;5073800;28;20236;-79
2021/12/12 05:57:25;;;;;;;10.53;10.03;;;;;;;3.64;94.54;91929.59;5088587;28;20208;-79
2021/12/12 05:59:54;;;;;;;10.80;10.20;;;;;;;3.49;93.21;91927.72;5089168;28;20217;-79
2021/12/12 06:02:21;;;;;;;10.13;9.73;;;;;;;3.44;94.27;91932.88;5090387;28;20185;-79
2021/12/12 06:04:47;;;;;;;10.70;10.20;;;;;;;3.25;94.02;91916.28;5088855;28;20224;-79
2021/12/12 06:07:17;;;;;;;10.40;9.90;;;;;;;2.94;95.51;91915.34;5090032;28;20181;-78
2021/12/12 06:09:45;;;;;;;11.93;11.37;;;;;;;3.15;95.29;91958.28;5088472;28;20328;-79
2021/12/12 06:12:11;;;;;;;10.73;10.23;;;;;;;3.32;94.23;91937.47;5088620;28;20197;-79
2021/12/12 06:14:37;;;;;;;11.27;10.77;;;;;;;2.85;95.30;91952.91;5089234;28;20231;-78
2021/12/12 06:17:07;;;;;;;10.43;9.93;;;;;;;2.33;95.35;91897.16;5089923;28;20193;-79
2021/12/12 06:19:33;;;;;;;10.93;10.43;;;;;;;2.91;94.83;91938.28;5088037;28;20189;-79
2021/12/12 06:22:00;;;;;;;10.67;10.17;;;;;;;2.36;94.80;91917.25;5090146;28;20184;-79
2021/12/12 06:24:27;;;;;;;11.73;11.13;;;;;;;2.86;95.33;91953.72;5088954;28;20192;-79
2021/12/12 06:26:55;;;;;;;12.53;11.83;;;;;;;2.54;95.12;91981.28;5087408;28;20198;-79
2021/12/12 06:29:21;;;;;;;11.70;11.00;;;;;;;2.54;96.97;91981.28;5089888;28;20196;-79
2021/12/12 06:31:49;;;;;;;12.37;11.67;;;;;;;2.50;96.20;91946.72;5089672;28;20195;-79
2021/12/12 06:34:17;;;;;;;11.57;10.87;;;;;;;2.36;95.96;91973.91;5089065;28;20192;-79
2021/12/12 06:36:43;;;;;;;12.60;11.90;;;;;;;2.06;96.83;91922.94;5066640;28;20220;-79
2021/12/12 06:39:11;;;;;;;11.80;11.17;;;;;;;2.60;96.89;91993.19;5067673;28;20186;-79
2021/12/12 06:41:37;;;;;;;12.40;11.70;;;;;;;2.69;94.89;91996.88;5068511;28;20400;-80
2021/12/12 06:44:06;;;;;;;12.50;11.90;;;;;;;2.18;95.04;91997.44;5069025;28;20197;-79
2021/12/12 06:46:32;;;;;;;12.87;12.07;;;;;;;2.22;96.55;92009.59;5066796;28;20248;-79
2021/12/12 06:48:59;;;;;;;12.37;11.57;;;;;;;2.19;96.13;92022.16;5068776;28;20196;-79
2021/12/12 06:51:28;;;;;;;13.17;12.47;;;;;;;2.19;96.86;92025.53;5068080;28;20259;-79
2021/12/12 06:53:55;;;;;;;11.77;11.17;;;;;;;2.15;95.92;92028.81;5102048;28;20189;-83
2021/12/12 06:56:25;;;;;;;11.70;11.10;;;;;;;2.18;96.48;92033.50;5068475;28;20259;-82
2021/12/12 06:58:51;;;;;;;12.13;11.53;;;;;;;2.14;95.87;92006.66;5069308;28;20217;-80
2021/12/12 07:01:23;;;;;;;12.30;11.53;;;;;;;2.10;95.96;92011.50;5084387;28;20288;-85
2021/12/12 07:03:49;;;;;;;12.33;11.60;;;;;;;2.22;94.12;92029.41;5087801;28;20208;-78
2021/12/12 07:06:21;;;;;;;11.93;11.23;;;;;;;2.24;95.57;92047.97;5086951;28;20212;-78
2021/12/12 07:08:47;;;;;;;12.80;12.10;;;;;;;2.44;95.16;92043.81;5091586;28;20220;-74
2021/12/12 07:11:17;;;;;;;11.07;10.47;;;;;;;2.08;94.30;92034.16;5087865;28;20223;-76
2021/12/12 07:13:44;;;;;;;12.03;11.43;;;;;;;2.47;94.38;92032.22;5091398;28;20233;-78
2021/12/12 07:16:09;;;;;;;27.97;26.10;;;;;;;2.16;93.84;92046.59;5089706;28;20222;-77
2021/12/12 07:18:36;;;;;;;12.27;11.47;;;;;;;2.21;92.75;92017.56;5091363;28;20232;-78
2021/12/12 07:21:09;;;;;;;12.80;12.00;;;;;;;2.28;93.19;92067.06;5092221;28;20292;-78
2021/12/12 07:23:35;;;;;;;12.37;11.67;;;;;;;1.95;93.93;92077.47;5093469;28;20188;-77
2021/12/12 07:26:03;;;;;;;12.37;11.17;;;;;;;2.24;94.50;92073.72;5091986;28;20286;-78
2021/12/12 07:28:33;;;;;;;12.33;11.63;;;;;;;2.34;94.59;92090.03;5092132;28;20189;-78
2021/12/12 07:31:04;;;;;;;13.40;12.60;;;;;;;2.43;94.00;92103.28;5091983;28;20235;-77
2021/12/12 07:33:31;;;;;;;28.50;16.17;;;;;;;2.28;95.24;92087.66;5093075;28;20192;-77
2021/12/12 07:35:59;;;;;;;11.93;11.13;;;;;;;2.55;92.89;92099.53;5076584;28;20241;-77
2021/12/12 07:38:27;;;;;;;12.03;11.33;;;;;;;2.21;93.70;92085.25;5070784;28;20201;-78
2021/12/12 07:40:53;;;;;;;12.90;12.17;;;;;;;2.32;94.90;92127.38;5067187;28;20225;-75
2021/12/12 07:43:20;;;;;;;12.07;11.40;;;;;;;2.05;93.39;92117.00;5069886;28;20215;-79
2021/12/12 07:45:47;;;;;;;11.30;10.70;;;;;;;1.84;94.73;92138.34;5069693;28;20228;-76
2021/12/12 07:48:13;;;;;;;11.27;10.67;;;;;;;1.76;96.19;92132.84;5071948;28;20197;-75
2021/12/12 07:50:40;;;;;;;12.13;11.50;;;;;;;1.79;95.87;92120.25;5080873;28;20221;-75
2021/12/12 07:53:07;;;;;;;12.50;11.87;;;;;;;2.09;93.96;92155.91;5090176;28;20205;-76
2021/12/12 07:55:34;;;;;;;11.03;10.43;;;;;;;1.39;95.29;92124.84;5091463;28;20228;-73
2021/12/12 07:58:04;;;;;;;12.07;11.47;;;;;;;1.74;97.40;92173.44;5091030;28;20193;-75
2021/12/12 08:00:30;;;;;;;11.83;11.13;;;;;;;1.76;96.28;92179.16;5080699;28;20212;-79
2021/12/12 08:02:56;;;;;;;12.20;11.57;;;;;;;1.90;95.38;92177.78;5072100;28;20185;-83
2021/12/12 08:05:28;;;;;;;12.80;12.10;;;;;;;2.01;95.09;92182.06;5067987;28;20300;-79
2021/12/12 08:08:00;;;;;;;12.20;11.50;;;;;;;2.10;92.50;92172.91;5069237;28;20201;-79
2021/12/12 08:10:28;;;;;;;12.93;12.23;;;;;;;2.20;93.18;92185.91;5070587;28;20239;-79
2021/12/12 08:12:54;;;;;;;12.90;12.17;;;;;;;1.93;92.58;92185.81;5071157;28;20194;-79
2021/12/12 08:15:20;;;;;;;12.37;11.70;;;;;;;2.05;93.51;92172.84;5111080;28;20254;-78
2021/12/12 08:17:46;;;;;;;12.63;11.90;;;;;;;1.78;93.51;92166.81;5088063;28;20244;-79
2021/12/12 08:20:13;;;;;;;13.20;12.50;;;;;;;2.17;93.40;92174.31;5086829;28;20225;-79
2021/12/12 08:22:40;;;;;;;12.83;12.03;;;;;;;2.16;93.26;92190.00;5089529;28;20218;-80
2021/12/12 08:25:08;;;;;;;13.60;12.63;;;;;;;1.96;92.66;92133.09;5089643;28;20280;-81
2021/12/12 08:27:34;;;;;;;13.33;12.63;;;;;;;2.44;90.55;92195.78;5089794;28;20219;-80
2021/12/12 08:30:00;;;;;;;13.33;12.53;;;;;;;2.11;92.72;92148.72;5089349;28;20220;-80
2021/12/12 08:32:26;;;;;;;13.60;12.47;;;;;;;2.45;92.94;92189.59;5091709;28;20193;-80
2021/12/12 08:34:52;;;;;;;13.60;12.80;;;;;;;2.52;91.31;92181.69;5090835;28;20234;-80
2021/12/12 08:37:18;;;;;;;14.17;13.10;;;;;;;2.46;93.36;92208.41;5091345;28;20181;-80
2021/12/12 08:39:45;;;;;;;13.10;12.10;;;;;;;2.66;92.01;92208.63;5091176;28;20247;-80
2021/12/12 08:42:12;;;;;;;15.93;14.73;;;;;;;2.25;92.35;92188.56;5089104;28;20218;-79
2021/12/12 08:44:39;;;;;;;14.37;13.47;;;;;;;2.31;92.12;92213.34;5089738;28;20824;-80
2021/12/12 08:47:07;;;;;;;13.40;12.50;;;;;;;1.73;91.62;92141.78;5090949;28;20264;-80
2021/12/12 08:49:35;;;;;;;13.13;12.13;;;;;;;1.76;92.65;92235.75;5089078;28;20217;-80
2021/12/12 08:52:09;;;;;;;13.30;12.50;;;;;;;1.96;93.63;92210.31;5091269;28;20193;-80
2021/12/12 08:54:39;;;;;;;13.67;12.67;;;;;;;1.63;91.83;92201.59;5088633;28;20185;-79
2021/12/12 08:57:10;;;;;;;13.20;12.27;;;;;;;1.97;93.00;92240.97;5090041;28;20173;-80
2021/12/12 08:59:39;;;;;;;14.27;13.37;;;;;;;1.62;93.54;92212.91;5089766;28;20211;-80
2021/12/12 09:02:10;;;;;;;13.87;12.97;;;;;;;1.96;94.13;92247.09;5089855;28;20234;-78
2021/12/12 09:04:44;;;;;;;13.33;12.43;;;;;;;1.64;94.51;92221.16;5090552;28;20230;-80
2021/12/12 09:07:24;;;;;;;14.20;13.20;;;;;;;1.74;95.07;92248.06;5090049;28;20193;-80
2021/12/12 09:09:58;;;;;;;13.27;12.57;;;;;;;1.53;95.04;92218.66;5089572;28;20228;-80
2021/12/12 09:12:34;;;;;;;13.43;12.63;;;;;;;1.59;94.64;92210.00;5090756;28;20192;-81
2021/12/12 09:15:11;;;;;;;14.17;12.93;;;;;;;1.47;94.99;92256.38;5089524;28;20224;-80
2021/12/12 09:17:44;;;;;;;13.87;12.87;;;;;;;1.13;95.54;92195.66;5089173;28;20208;-80
2021/12/12 09:20:22;;;;;;;12.27;11.57;;;;;;;1.56;96.35;92257.56;5088404;28;20267;-79
2021/12/12 09:23:01;;;;;;;12.50;11.70;;;;;;;1.26;95.76;92240.84;5089774;28;20238;-80
2021/12/12 09:25:37;;;;;;;12.23;11.47;;;;;;;1.27;96.26;92258.63;5089995;28;20320;-80
2021/12/12 09:28:14;;;;;;;12.53;11.83;;;;;;;1.70;96.53;92262.41;5090516;28;20199;-80
2021/12/12 09:30:40;;;;;;;12.83;11.93;;;;;;;1.28;96.17;92236.25;5090055;28;20300;-80
2021/12/12 09:33:18;;;;;;;14.07;13.00;;;;;;;1.22;96.57;92261.09;5089519;28;20196;-80
2021/12/12 09:36:07;;;;;;;13.53;12.53;;;;;;;1.24;96.31;92243.66;5088932;28;20240;-80
2021/12/12 09:38:39;;;;;;;16.40;15.17;;;;;;;1.70;96.75;92277.84;5089975;28;20244;-80
2021/12/12 09:41:31;;;;;;;15.20;14.03;;;;;;;1.42;94.83;92269.16;5090079;28;20226;-79
2021/12/12 09:44:09;;;;;;;11.93;11.23;;;;;;;1.54;94.07;92277.59;5089875;28;20199;-80
2021/12/12 09:46:59;;;;;;;13.97;13.07;;;;;;;1.53;94.83;92273.47;5070674;28;20255;-80
2021/12/12 09:53:15;;;;;;;14.23;13.23;;;;;;;1.35;96.26;92271.06;5066919;28;20224;-74
2021/12/12 09:55:48;;;;;;;13.37;12.57;;;;;;;1.29;94.94;92287.44;5062008;28;20244;-73
2021/12/12 09:58:31;;;;;;;11.67;11.07;;;;;;;1.16;95.76;92277.44;5069154;28;20193;-75
2021/12/12 10:01:03;;;;;;;12.77;11.97;;;;;;;1.40;97.05;92291.75;5097789;28;20311;-74
2021/12/12 10:03:49;;;;;;;13.87;13.10;;;;;;;1.39;94.94;92285.03;5088302;28;20223;-74
2021/12/12 10:06:30;;;;;;;12.03;11.10;;;;;;;1.24;95.65;92289.94;5088025;28;20696;-73
2021/12/12 10:09:13;;;;;;;13.47;12.67;;;;;;;1.20;96.70;92275.97;5086368;28;20200;-73
2021/12/12 10:11:52;;;;;;;12.13;11.53;;;;;;;1.41;96.16;92283.03;5068134;28;20229;-73
2021/12/12 10:14:28;;;;;;;13.47;12.57;;;;;;;1.74;95.24;92294.38;5068479;28;20236;-77
2021/12/12 10:17:08;;;;;;;12.63;11.93;;;;;;;1.71;93.54;92299.97;5066216;28;20189;-73
2021/12/12 10:19:41;;;;;;;14.07;13.17;;;;;;;1.70;94.48;92306.16;5070079;28;20209;-77
2021/12/12 10:22:09;;;;;;;16.33;15.23;;;;;;;2.04;93.36;92300.00;5089548;28;20192;-73
2021/12/12 10:24:44;;;;;;;12.67;11.90;;;;;;;2.30;91.54;92300.13;5088214;28;20188;-73
2021/12/12 10:27:23;;;;;;;12.70;11.90;;;;;;;2.13;92.09;92301.16;5089785;28;20212;-74
2021/12/12 10:30:18;;;;;;;12.53;11.83;;;;;;;1.91;91.77;92295.94;5082714;28;20248;-73
2021/12/12 10:33:18;;;;;;;12.73;11.83;;;;;;;1.65;92.20;92307.59;5066841;28;20186;-73
2021/12/12 10:35:59;;;;;;;11.97;11.37;;;;;;;1.89;93.36;92317.75;5066704;28;20252;-73
2021/12/12 10:38:33;;;;;;;11.60;11.00;;;;;;;1.85;91.27;92321.81;5066965;28;20201;-73
2021/12/12 10:41:07;;;;;;;12.40;11.70;;;;;;;1.60;92.97;92292.09;5068544;28;20292;-74
2021/12/12 10:43:40;;;;;;;12.43;11.70;;;;;;;2.04;91.24;92336.78;5069022;28;20195;-73
2021/12/12 10:46:11;;;;;;;14.30;13.40;;;;;;;1.84;92.35;92333.91;5067404;28;20240;-73
2021/12/12 10:49:26;;;;;;;13.97;13.03;;;;;;;1.96;91.25;92333.84;5066961;28;20189;-73
2021/12/12 10:52:18;;;;;;;14.13;13.20;;;;;;;2.11;91.56;92321.19;5026012;28;20224;-73
2021/12/12 10:54:51;;;;;;;12.73;11.93;;;;;;;2.43;90.85;92343.59;5066469;28;20229;-74
2021/12/12 10:57:23;;;;;;;13.10;12.30;;;;;;;1.94;93.13;92338.44;5068771;28;20189;-76
2021/12/12 10:59:56;;;;;;;12.50;11.80;;;;;;;2.43;89.92;92310.09;5065768;28;20217;-77
2021/12/12 11:02:30;;;;;;;13.37;12.57;;;;;;;2.19;90.53;92338.84;5069831;28;20193;-78
2021/12/12 11:05:26;;;;;;;14.37;13.47;;;;;;;2.03;91.28;92321.59;5068405;28;20236;-77
2021/12/12 11:08:03;;;;;;;15.03;13.93;;;;;;;2.06;92.71;92290.22;5066641;28;20207;-78
2021/12/12 11:10:33;;;;;;;15.53;14.47;;;;;;;2.27;91.04;92346.19;5069502;28;20220;-77
2021/12/12 11:13:11;;;;;;;13.57;12.67;;;;;;;2.50;90.02;92330.53;5068715;28;20192;-78
2021/12/12 11:15:44;;;;;;;14.47;13.43;;;;;;;2.31;88.88;92352.41;5086202;28;20249;-77
2021/12/12 11:18:13;;;;;;;15.23;14.23;;;;;;;2.49;90.01;92334.91;5088819;28;20242;-77
2021/12/12 11:20:43;;;;;;;14.77;13.70;;;;;;;2.37;90.13;92349.69;5088233;28;20228;-77
2021/12/12 11:23:28;;;;;;;14.37;13.13;;;;;;;2.21;90.83;92331.66;5088226;28;20195;-78
2021/12/12 11:25:58;;;;;;;15.17;13.77;;;;;;;2.23;91.15;92329.63;5100178;28;20260;-78
2021/12/12 11:28:30;;;;;;;15.67;14.53;;;;;;;2.34;90.02;92344.22;5088088;28;20200;-77
2021/12/12 11:31:05;;;;;;;16.30;15.00;;;;;;;2.24;90.12;92338.91;5086774;28;20242;-77
2021/12/12 11:33:34;;;;;;;16.23;15.03;;;;;;;2.40;90.09;92343.25;5087565;28;20199;-78
2021/12/12 11:36:01;;;;;;;15.17;14.17;;;;;;;2.20;89.96;92340.38;5088174;28;20228;-78
2021/12/12 11:38:33;;;;;;;13.63;12.43;;;;;;;2.04;90.99;92351.47;5088537;28;20204;-77
2021/12/12 11:41:05;;;;;;;12.60;11.90;;;;;;;2.10;90.50;92345.41;5087478;28;20217;-77
2021/12/12 11:43:48;;;;;;;15.83;14.73;;;;;;;1.98;91.21;92342.88;5088255;28;20215;-78
2021/12/12 11:46:42;;;;;;;13.20;12.40;;;;;;;2.14;91.05;92338.75;5087469;28;20228;-78
2021/12/12 11:49:11;;;;;;;15.23;14.23;;;;;;;2.01;91.45;92346.81;5089020;28;20219;-78
2021/12/12 11:51:49;;;;;;;17.87;16.40;;;;;;;1.82;90.58;92315.38;5088420;28;20244;-78
2021/12/12 11:54:54;;;;;;;14.77;13.83;;;;;;;1.96;91.85;92331.28;5091890;28;20192;-77
2021/12/12 11:57:26;;;;;;;16.80;15.60;;;;;;;2.03;92.10;92350.69;5070991;28;20228;-79
2021/12/12 12:00:16;;;;;;;18.23;16.73;;;;;;;2.13;91.82;92344.94;5075784;28;20220;-79
2021/12/12 12:03:05;;;;;;;16.37;15.07;;;;;;;1.68;92.72;92332.09;5091170;28;20207;-79
2021/12/12 12:06:08;;;;;;;17.60;16.20;;;;;;;1.99;91.80;92348.81;5090314;28;20235;-78
2021/12/12 12:09:24;;;;;;;17.07;15.77;;;;;;;2.00;92.12;92350.38;5091313;28;20248;-78